MAPA DE AEROPUERTO

INFORMACIÓN METAR y TAF

METAR FOR LEBL
ADDS - METARS form results

(1418 UTC 05 December 2020)
Data provider http://aviationweather.gov/metar/data/
 
METAR text: LEBL 051400Z 31010KT 9999 FEW030 11/M00 Q0999 NOSIG
Conditions at: LEBL (BARCELONA AIRPOR, ES) observed 1400 UTC 05 December 2020
Temperature: 11.0°C (52°F)
Dewpoint: 0.0°C (32°F) [RH = 47%]
Pressure (altimeter): 29.50 inches Hg (999.0 mb)
Winds: from the NW (310 degrees) at 12 MPH (10 knots; 5.1 m/s)
Visibility: 6 or more miles (10+ km)
Ceiling: at least 12,000 feet AGL
Clouds: few clouds at 3000 feet AGL
Weather: no significant weather observed at this time

METAR text: LEBL 051330Z 31008KT 9999 FEW030 11/00 Q0999 NOSIG
Conditions at: LEBL (BARCELONA AIRPOR, ES) observed 1330 UTC 05 December 2020
Temperature: 11.0°C (52°F)
Dewpoint: 0.0°C (32°F) [RH = 47%]
Pressure (altimeter): 29.50 inches Hg (999.0 mb)
Winds: from the NW (310 degrees) at 9 MPH (8 knots; 4.1 m/s)
Visibility: 6 or more miles (10+ km)
Ceiling: at least 12,000 feet AGL
Clouds: few clouds at 3000 feet AGL
Weather: no significant weather observed at this time

Forecast for: LEBL (BARCELONA AIRPOR, ES)
Text: TAF LEBL 051100Z 0512/0612 27010KT 9999 FEW030 TX12/0512Z TN05/0606Z
Forecast period: 1200 UTC 05 December 2020 to 0000 UTC 06 December 2020
Forecast type: FROM: standard forecast or significant change
Winds: from the W (270 degrees) at 12 MPH (10 knots; 5.1 m/s)
Visibility: 6 or more miles (10+ km)
Ceiling: at least 12,000 feet AGL
Clouds: few clouds at 3000 feet AGL
Weather: no significant weather forecast for this period
Text: TEMPO 0512/0515 VRB04KT
Forecast period: 1200 to 1500 UTC 05 December 2020
Forecast type: TEMPORARY: The following changes expected for less than half the time period
Winds: variable direction winds at 5 MPH (4 knots; 2.1 m/s)
Visibility: missing
Ceiling: unknown
Clouds: missing
Weather: no significant weather forecast for this period
Text: BECMG 0600/0602 33010KT
Forecast period: 0000 to 1200 UTC 06 December 2020
Forecast type: BECOMING: Conditions expected to become as follows by 0200 UTC 06 December 2020
Winds: from the NNW (330 degrees) at 12 MPH (10 knots; 5.1 m/s)
Visibility: 6 or more miles (10+ km)
Ceiling: at least 12,000 feet AGL
Clouds: few clouds at 3000 feet AGL
Weather: no significant weather forecast for this period